Time;durP1;ratioP1;P1;durP2;ratioP2;P2;SDS_P1;SDS_P2;PMS_P1;PMS_P2;Temp;Humidity;BMP_temperature;BMP_pressure;BME280_temperature;BME280_humidity;BME280_pressure;Samples;Min_cycle;Max_cycle;Signal;HPM_P1;HPM_P2
2022/08/27 00:00:29;;;;;;;16.15;4.87;;;;;;;;;;1747330;81;21159;-61
2022/08/27 00:02:55;;;;;;;11.30;4.80;;;;;;;;;;1748634;81;21036;-61
2022/08/27 00:05:22;;;;;;;14.98;4.97;;;;;;;;;;1747420;82;21051;-61
2022/08/27 00:07:50;;;;;;;13.48;5.03;;;;;;;;;;1745217;81;21044;-61
2022/08/27 00:10:20;;;;;;;15.23;4.90;;;;;;;;;;1746855;81;21059;-61
2022/08/27 00:12:48;;;;;;;15.83;5.10;;;;;;;;;;1747896;81;21074;-61
2022/08/27 00:15:16;;;;;;;12.28;4.70;;;;;;;;;;1752311;82;21004;-61
2022/08/27 00:17:44;;;;;;;9.33;4.22;;;;;;;;;;1753729;80;21133;-61
2022/08/27 00:20:13;;;;;;;16.25;4.78;;;;;;;;;;1753221;81;21050;-61
2022/08/27 00:22:41;;;;;;;10.05;4.53;;;;;;;;;;1746990;81;21027;-61
2022/08/27 00:25:08;;;;;;;16.57;4.80;;;;;;;;;;1747664;81;20980;-62
2022/08/27 00:27:35;;;;;;;14.93;4.45;;;;;;;;;;1744656;82;21055;-61
2022/08/27 00:30:09;;;;;;;16.52;4.62;;;;;;;;;;1750119;81;21020;-61
2022/08/27 00:32:37;;;;;;;15.00;4.85;;;;;;;;;;1751048;81;21114;-61
2022/08/27 00:35:05;;;;;;;12.78;4.60;;;;;;;;;;1749794;81;21079;-61
2022/08/27 00:37:33;;;;;;;8.18;4.40;;;;;;;;;;1747091;81;21075;-61
2022/08/27 00:40:00;;;;;;;9.78;4.55;;;;;;;;;;1748432;81;21086;-61
2022/08/27 00:42:26;;;;;;;10.95;4.50;;;;;;;;;;1746906;81;21041;-61
2022/08/27 00:44:54;;;;;;;15.20;4.97;;;;;;;;;;1746589;81;21141;-61
2022/08/27 00:47:23;;;;;;;19.80;4.55;;;;;;;;;;1752372;81;21071;-62
2022/08/27 00:49:54;;;;;;;10.98;4.50;;;;;;;;;;1751120;82;21090;-61
2022/08/27 00:52:26;;;;;;;10.65;4.70;;;;;;;;;;1749672;81;21535;-61
2022/08/27 00:55:08;;;;;;;15.78;5.15;;;;;;;;;;1750584;81;21074;-61
2022/08/27 00:57:37;;;;;;;11.45;4.78;;;;;;;;;;1753428;82;21027;-61
2022/08/27 01:00:08;;;;;;;11.97;4.50;;;;;;;;;;1750602;81;21180;-61
2022/08/27 01:02:35;;;;;;;17.05;5.33;;;;;;;;;;1746112;81;21059;-61
2022/08/27 01:05:07;;;;;;;19.65;5.42;;;;;;;;;;1748312;81;21079;-61
2022/08/27 01:07:36;;;;;;;25.25;5.15;;;;;;;;;;1748153;81;21026;-61
2022/08/27 01:10:07;;;;;;;15.65;4.87;;;;;;;;;;1747574;81;21126;-61
2022/08/27 01:12:35;;;;;;;21.60;5.45;;;;;;;;;;1719561;82;21445;-61
2022/08/27 01:15:05;;;;;;;17.67;4.87;;;;;;;;;;1746163;82;21008;-61
2022/08/27 01:17:32;;;;;;;17.10;4.97;;;;;;;;;;1746612;81;21027;-61
2022/08/27 01:20:03;;;;;;;21.07;5.45;;;;;;;;;;1746403;81;21007;-61
2022/08/27 01:22:43;;;;;;;16.52;4.70;;;;;;;;;;1750634;82;21086;-61
2022/08/27 01:25:12;;;;;;;15.18;4.95;;;;;;;;;;1753983;82;20992;-61
2022/08/27 01:27:41;;;;;;;18.23;5.03;;;;;;;;;;1749114;81;21066;-61
2022/08/27 01:30:10;;;;;;;19.77;5.03;;;;;;;;;;1746898;81;21522;-62
2022/08/27 01:32:41;;;;;;;23.52;5.15;;;;;;;;;;1745694;81;21075;-61
2022/08/27 01:35:10;;;;;;;30.60;5.47;;;;;;;;;;1725684;82;21016;-61
2022/08/27 01:37:36;;;;;;;19.67;5.25;;;;;;;;;;1751647;81;20971;-61
2022/08/27 01:40:04;;;;;;;22.73;4.80;;;;;;;;;;1749039;82;20988;-61
2022/08/27 01:42:40;;;;;;;25.68;5.22;;;;;;;;;;1748028;81;21535;-61
2022/08/27 01:45:25;;;;;;;28.57;5.83;;;;;;;;;;1745648;82;21035;-60
2022/08/27 01:47:52;;;;;;;24.90;5.70;;;;;;;;;;1745244;81;21046;-61
2022/08/27 01:50:22;;;;;;;30.50;5.75;;;;;;;;;;1752245;81;21495;-60
2022/08/27 01:52:50;;;;;;;25.00;5.55;;;;;;;;;;1748686;81;21078;-61
2022/08/27 01:55:20;;;;;;;23.87;5.67;;;;;;;;;;1746758;81;21534;-60
2022/08/27 01:57:48;;;;;;;23.00;5.75;;;;;;;;;;1745884;82;21028;-61
2022/08/27 02:00:21;;;;;;;24.82;5.20;;;;;;;;;;1750195;81;21035;-60
2022/08/27 02:02:48;;;;;;;25.50;5.85;;;;;;;;;;1746872;81;21075;-60
2022/08/27 02:05:15;;;;;;;36.38;5.60;;;;;;;;;;1750449;80;21562;-60
2022/08/27 02:07:43;;;;;;;23.30;5.72;;;;;;;;;;1753640;81;21070;-60
2022/08/27 02:10:13;;;;;;;27.20;6.03;;;;;;;;;;1750204;81;21071;-61
2022/08/27 02:12:40;;;;;;;30.15;5.87;;;;;;;;;;1748056;80;21561;-61
2022/08/27 02:15:09;;;;;;;27.85;5.67;;;;;;;;;;1745950;81;21047;-60
2022/08/27 02:17:36;;;;;;;30.35;6.10;;;;;;;;;;1743682;81;21039;-60
2022/08/27 02:20:05;;;;;;;30.60;5.35;;;;;;;;;;1746919;81;21580;-60
2022/08/27 02:22:33;;;;;;;30.97;5.97;;;;;;;;;;1744924;81;21785;-60
2022/08/27 02:25:00;;;;;;;32.93;5.55;;;;;;;;;;1751136;81;21043;-61
2022/08/27 02:27:27;;;;;;;31.65;5.78;;;;;;;;;;1752888;81;22387;-60
2022/08/27 02:29:54;;;;;;;29.05;5.33;;;;;;;;;;1746099;81;21156;-61
2022/08/27 02:32:21;;;;;;;27.95;5.40;;;;;;;;;;1745393;81;21550;-60
2022/08/27 02:34:48;;;;;;;25.48;5.87;;;;;;;;;;1745302;81;21043;-60
2022/08/27 02:37:15;;;;;;;25.40;5.45;;;;;;;;;;1745231;82;21003;-60
2022/08/27 02:39:42;;;;;;;34.50;5.20;;;;;;;;;;1747652;81;21039;-61
2022/08/27 02:42:10;;;;;;;31.45;5.42;;;;;;;;;;1753917;81;21023;-61
2022/08/27 02:44:38;;;;;;;25.43;5.10;;;;;;;;;;1749975;81;21578;-60
2022/08/27 02:47:05;;;;;;;30.50;5.37;;;;;;;;;;1747312;81;21527;-60
2022/08/27 02:49:33;;;;;;;28.80;4.85;;;;;;;;;;1745916;81;21495;-60
2022/08/27 02:52:02;;;;;;;34.15;5.45;;;;;;;;;;1744618;81;21036;-60
2022/08/27 02:54:31;;;;;;;31.27;5.85;;;;;;;;;;1748315;81;21078;-61
2022/08/27 02:56:59;;;;;;;20.25;5.25;;;;;;;;;;1748090;81;21581;-61
2022/08/27 02:59:25;;;;;;;30.77;5.15;;;;;;;;;;1748529;81;21039;-61
2022/08/27 03:01:52;;;;;;;22.50;4.85;;;;;;;;;;1750428;81;21063;-61
2022/08/27 03:04:21;;;;;;;25.82;5.37;;;;;;;;;;1748161;81;21024;-61
2022/08/27 03:06:48;;;;;;;30.45;5.10;;;;;;;;;;1751555;81;21011;-60
2022/08/27 03:09:15;;;;;;;22.98;5.17;;;;;;;;;;1746014;82;21032;-61
2022/08/27 03:11:42;;;;;;;21.60;5.10;;;;;;;;;;1748039;81;21058;-61
2022/08/27 03:14:09;;;;;;;19.05;4.53;;;;;;;;;;1749082;81;21051;-61
2022/08/27 03:16:37;;;;;;;17.37;4.70;;;;;;;;;;1749608;81;21036;-61
2022/08/27 03:19:07;;;;;;;23.22;4.83;;;;;;;;;;1753135;80;21094;-60
2022/08/27 03:21:35;;;;;;;23.55;4.92;;;;;;;;;;1751743;81;21007;-60
2022/08/27 03:24:03;;;;;;;17.57;4.75;;;;;;;;;;1722368;82;21610;-61
2022/08/27 03:26:34;;;;;;;18.95;4.33;;;;;;;;;;1748838;81;21093;-60
2022/08/27 03:28:59;;;;;;;23.27;4.50;;;;;;;;;;1748026;82;21531;-61
2022/08/27 03:31:27;;;;;;;24.57;4.15;;;;;;;;;;1747066;81;21027;-61
2022/08/27 03:33:59;;;;;;;18.57;4.67;;;;;;;;;;1750897;81;20988;-61
2022/08/27 03:36:30;;;;;;;18.70;4.08;;;;;;;;;;1750777;81;21042;-62
2022/08/27 03:38:57;;;;;;;25.85;4.25;;;;;;;;;;1753820;82;21039;-61
2022/08/27 03:41:24;;;;;;;23.67;4.65;;;;;;;;;;1726826;81;21043;-61
2022/08/27 03:43:51;;;;;;;20.08;4.00;;;;;;;;;;1751482;81;21026;-60
2022/08/27 03:46:20;;;;;;;20.80;4.17;;;;;;;;;;1746389;81;21174;-60
2022/08/27 03:48:48;;;;;;;24.18;4.50;;;;;;;;;;1744172;80;21028;-60
2022/08/27 03:51:15;;;;;;;18.92;4.03;;;;;;;;;;1737400;81;21127;-60
2022/08/27 03:53:43;;;;;;;17.02;3.95;;;;;;;;;;1728663;81;21094;-60
2022/08/27 03:56:10;;;;;;;22.32;4.15;;;;;;;;;;1705220;83;21091;-60
2022/08/27 03:58:37;;;;;;;15.03;3.83;;;;;;;;;;1717606;83;21148;-60
2022/08/27 04:01:04;;;;;;;16.77;3.90;;;;;;;;;;1697311;83;21096;-60
2022/08/27 04:03:32;;;;;;;16.07;3.55;;;;;;;;;;1672784;85;21087;-60
2022/08/27 04:05:59;;;;;;;15.13;3.80;;;;;;;;;;1679534;83;21464;-60
2022/08/27 04:08:28;;;;;;;20.02;3.65;;;;;;;;;;1692890;83;21495;-61
2022/08/27 04:10:56;;;;;;;21.68;3.80;;;;;;;;;;1721475;82;21063;-60
2022/08/27 04:13:23;;;;;;;18.65;4.22;;;;;;;;;;1734493;81;21077;-60
2022/08/27 04:15:53;;;;;;;18.60;3.77;;;;;;;;;;1734064;82;21031;-61
2022/08/27 04:18:20;;;;;;;13.28;3.67;;;;;;;;;;1729569;81;21062;-60
2022/08/27 04:20:48;;;;;;;16.73;3.65;;;;;;;;;;1724985;81;21036;-61
2022/08/27 04:23:15;;;;;;;22.22;4.00;;;;;;;;;;1715344;81;21027;-60
2022/08/27 04:25:42;;;;;;;16.87;3.67;;;;;;;;;;1724270;82;21062;-61
2022/08/27 04:28:11;;;;;;;16.85;4.17;;;;;;;;;;1735096;82;21478;-61
2022/08/27 04:30:40;;;;;;;19.00;3.75;;;;;;;;;;1750248;82;20972;-60
2022/08/27 04:33:08;;;;;;;15.95;3.67;;;;;;;;;;1743613;81;21483;-61
2022/08/27 04:35:35;;;;;;;20.92;4.37;;;;;;;;;;1718869;82;21079;-60
2022/08/27 04:38:03;;;;;;;20.12;4.12;;;;;;;;;;1729508;82;21019;-60
2022/08/27 04:43:15;;;;;;;22.93;4.12;;;;;;;;;;1715485;82;21086;-61
2022/08/27 04:45:47;;;;;;;21.73;4.25;;;;;;;;;;1725575;82;21059;-60
2022/08/27 04:48:16;;;;;;;21.97;4.30;;;;;;;;;;1737069;82;21023;-60
2022/08/27 04:50:45;;;;;;;21.80;4.10;;;;;;;;;;1749052;81;21523;-60
2022/08/27 04:53:13;;;;;;;24.87;4.22;;;;;;;;;;1717975;82;21090;-61
2022/08/27 04:55:43;;;;;;;19.95;4.28;;;;;;;;;;1745546;82;21487;-60
2022/08/27 04:58:11;;;;;;;21.05;3.75;;;;;;;;;;1697921;83;21670;-60
2022/08/27 05:00:47;;;;;;;18.27;3.87;;;;;;;;;;1672280;84;21020;-60
2022/08/27 05:03:14;;;;;;;18.55;4.62;;;;;;;;;;1732733;81;21014;-60
2022/08/27 05:05:42;;;;;;;17.37;4.15;;;;;;;;;;1732553;81;21074;-60
2022/08/27 05:08:13;;;;;;;15.25;4.60;;;;;;;;;;1733362;81;20999;-60
2022/08/27 05:10:45;;;;;;;15.28;4.58;;;;;;;;;;1727285;82;21017;-60
2022/08/27 05:13:12;;;;;;;22.05;4.97;;;;;;;;;;1721338;82;21547;-60
2022/08/27 05:15:40;;;;;;;16.30;4.58;;;;;;;;;;1738353;81;21495;-60
2022/08/27 05:18:08;;;;;;;22.13;5.17;;;;;;;;;;1739684;81;21040;-61
2022/08/27 05:20:44;;;;;;;19.77;4.55;;;;;;;;;;1739171;82;21082;-61
2022/08/27 05:23:12;;;;;;;13.70;4.22;;;;;;;;;;1730958;81;21011;-60
2022/08/27 05:25:40;;;;;;;20.02;4.35;;;;;;;;;;1732162;82;21071;-61
2022/08/27 05:28:09;;;;;;;20.30;4.78;;;;;;;;;;1714186;82;21063;-60
2022/08/27 05:30:37;;;;;;;27.30;4.30;;;;;;;;;;1741999;81;21472;-60
2022/08/27 05:33:04;;;;;;;19.05;4.28;;;;;;;;;;1751636;81;21012;-60
2022/08/27 05:35:31;;;;;;;17.80;4.20;;;;;;;;;;1721060;81;21034;-61
2022/08/27 05:37:59;;;;;;;22.95;4.08;;;;;;;;;;1719224;82;21485;-60
2022/08/27 05:40:26;;;;;;;17.60;4.50;;;;;;;;;;1738437;81;21017;-60
2022/08/27 05:42:53;;;;;;;18.35;4.05;;;;;;;;;;1734211;82;20982;-61
2022/08/27 05:45:23;;;;;;;14.95;3.83;;;;;;;;;;1742681;82;21067;-62
2022/08/27 05:47:49;;;;;;;19.57;3.90;;;;;;;;;;1730501;81;22445;-60
2022/08/27 05:50:17;;;;;;;17.32;4.35;;;;;;;;;;1713571;82;21063;-61
2022/08/27 05:52:44;;;;;;;19.77;4.03;;;;;;;;;;1721382;82;20987;-59
2022/08/27 05:55:11;;;;;;;21.97;4.28;;;;;;;;;;1731961;81;20971;-61
2022/08/27 05:57:38;;;;;;;19.42;4.42;;;;;;;;;;1727375;81;21536;-60
2022/08/27 06:02:51;;;;;;;20.57;4.22;;;;;;;;;;1729687;81;20983;-61
2022/08/27 06:05:18;;;;;;;11.03;3.95;;;;;;;;;;1726476;81;21046;-61
2022/08/27 06:07:46;;;;;;;15.00;3.98;;;;;;;;;;1750632;82;21039;-61
2022/08/27 06:10:13;;;;;;;14.47;3.70;;;;;;;;;;1722137;81;21003;-61
2022/08/27 06:12:42;;;;;;;14.80;3.95;;;;;;;;;;1728347;81;21002;-60
2022/08/27 06:15:10;;;;;;;14.83;3.80;;;;;;;;;;1740948;82;21142;-61
2022/08/27 06:17:39;;;;;;;14.73;4.00;;;;;;;;;;1721260;82;21008;-61
2022/08/27 06:20:09;;;;;;;17.32;4.03;;;;;;;;;;1736983;82;20981;-62
2022/08/27 06:22:35;;;;;;;14.43;3.92;;;;;;;;;;1719799;82;21466;-61
2022/08/27 06:25:04;;;;;;;19.62;3.70;;;;;;;;;;1732225;81;21206;-60
2022/08/27 06:27:30;;;;;;;18.60;3.90;;;;;;;;;;1729737;82;21137;-61
2022/08/27 06:29:57;;;;;;;13.28;4.03;;;;;;;;;;1727323;81;21074;-61
2022/08/27 06:32:25;;;;;;;15.23;3.85;;;;;;;;;;1731064;82;21021;-61
2022/08/27 06:34:51;;;;;;;16.07;3.60;;;;;;;;;;1695649;83;21055;-60
2022/08/27 06:37:18;;;;;;;15.60;3.98;;;;;;;;;;1749069;81;20980;-61
2022/08/27 06:39:45;;;;;;;15.05;3.92;;;;;;;;;;1729634;82;20981;-62
2022/08/27 06:42:12;;;;;;;12.68;4.00;;;;;;;;;;1699757;83;21056;-62
2022/08/27 06:44:40;;;;;;;10.93;3.20;;;;;;;;;;1724766;81;21495;-62
2022/08/27 06:47:06;;;;;;;7.62;3.70;;;;;;;;;;1725101;81;21019;-62
2022/08/27 06:49:33;;;;;;;16.23;3.98;;;;;;;;;;1729851;81;21004;-62
2022/08/27 06:52:00;;;;;;;17.02;4.30;;;;;;;;;;1744903;82;21038;-62
2022/08/27 06:54:27;;;;;;;10.55;3.90;;;;;;;;;;1731277;82;20971;-61
2022/08/27 06:56:57;;;;;;;9.98;3.70;;;;;;;;;;1726834;82;21003;-62
2022/08/27 06:59:24;;;;;;;11.53;3.72;;;;;;;;;;1748139;80;21003;-62
2022/08/27 07:01:51;;;;;;;15.30;4.20;;;;;;;;;;1747782;81;21688;-62
2022/08/27 07:04:23;;;;;;;13.70;3.62;;;;;;;;;;1748369;81;22449;-61
2022/08/27 07:06:50;;;;;;;11.30;4.00;;;;;;;;;;1753556;82;21026;-62
2022/08/27 07:09:19;;;;;;;8.88;3.72;;;;;;;;;;1750978;81;21031;-61
2022/08/27 07:11:46;;;;;;;11.93;3.70;;;;;;;;;;1747118;81;21062;-62
2022/08/27 07:14:12;;;;;;;13.08;3.55;;;;;;;;;;1747331;81;21177;-61
2022/08/27 07:16:39;;;;;;;11.22;3.60;;;;;;;;;;1748541;82;21562;-61
2022/08/27 07:19:07;;;;;;;12.43;3.70;;;;;;;;;;1748765;81;21601;-60
2022/08/27 07:21:38;;;;;;;14.07;3.60;;;;;;;;;;1749231;81;21054;-61
2022/08/27 07:24:06;;;;;;;10.45;3.50;;;;;;;;;;1747581;81;21059;-60
2022/08/27 07:26:36;;;;;;;10.10;3.75;;;;;;;;;;1748817;81;21071;-60
2022/08/27 07:29:05;;;;;;;11.40;3.80;;;;;;;;;;1747015;81;21086;-61
2022/08/27 07:31:34;;;;;;;13.80;4.00;;;;;;;;;;1750271;82;21179;-60
2022/08/27 07:34:02;;;;;;;8.95;3.70;;;;;;;;;;1748716;80;21011;-60
2022/08/27 07:36:30;;;;;;;12.13;3.45;;;;;;;;;;1744307;82;21531;-61
2022/08/27 07:38:57;;;;;;;15.30;4.53;;;;;;;;;;1746665;81;21054;-61
2022/08/27 07:41:24;;;;;;;14.80;4.65;;;;;;;;;;1749459;81;22172;-60
2022/08/27 07:46:36;;;;;;;14.33;4.28;;;;;;;;;;1751939;81;21027;-61
2022/08/27 07:49:03;;;;;;;13.93;4.28;;;;;;;;;;1748303;82;21534;-61
2022/08/27 07:51:31;;;;;;;10.23;4.40;;;;;;;;;;1746571;82;21565;-62
2022/08/27 07:53:58;;;;;;;12.93;4.70;;;;;;;;;;1744585;82;21027;-60
2022/08/27 07:56:25;;;;;;;20.88;10.58;;;;;;;;;;1748942;81;21028;-61
2022/08/27 07:58:51;;;;;;;13.62;3.98;;;;;;;;;;1744133;81;21350;-61
2022/08/27 08:01:18;;;;;;;11.57;3.98;;;;;;;;;;1749922;81;21526;-61
2022/08/27 08:03:45;;;;;;;14.47;4.00;;;;;;;;;;1746088;81;21051;-61
2022/08/27 08:06:14;;;;;;;11.12;3.85;;;;;;;;;;1746105;81;21070;-64
2022/08/27 08:08:41;;;;;;;11.63;3.80;;;;;;;;;;1741887;81;21098;-61
2022/08/27 08:11:10;;;;;;;10.08;4.37;;;;;;;;;;1746405;81;21009;-61
2022/08/27 08:13:37;;;;;;;10.08;4.37;;;;;;;;;;1747301;81;21015;-61
2022/08/27 08:16:05;;;;;;;9.75;4.15;;;;;;;;;;1731913;81;21245;-61
2022/08/27 08:18:32;;;;;;;13.80;3.95;;;;;;;;;;1750263;81;21098;-61
2022/08/27 08:21:01;;;;;;;13.95;4.50;;;;;;;;;;1745838;82;21114;-61
2022/08/27 08:23:28;;;;;;;10.60;3.92;;;;;;;;;;1745763;81;21099;-61
2022/08/27 08:25:56;;;;;;;9.10;3.80;;;;;;;;;;1743531;82;21054;-62
2022/08/27 08:28:24;;;;;;;15.20;3.65;;;;;;;;;;1749546;81;21027;-61
2022/08/27 08:30:52;;;;;;;14.13;4.03;;;;;;;;;;1747445;81;21023;-62
2022/08/27 08:33:20;;;;;;;13.40;4.40;;;;;;;;;;1744497;81;21032;-61
2022/08/27 08:35:50;;;;;;;16.25;4.47;;;;;;;;;;1745907;81;21087;-61
2022/08/27 08:38:17;;;;;;;20.90;3.98;;;;;;;;;;1748003;81;21041;-61
2022/08/27 08:40:52;;;;;;;16.45;4.12;;;;;;;;;;1752684;82;21054;-60
2022/08/27 08:43:25;;;;;;;10.40;3.58;;;;;;;;;;1752421;81;21046;-61
2022/08/27 08:45:51;;;;;;;;;;;;;;;;;;1751392;81;21047;-61
2022/08/27 08:48:20;;;;;;;12.73;3.98;;;;;;;;;;1747348;81;20157;-61
2022/08/27 08:51:01;;;;;;;8.00;3.47;;;;;;;;;;1747421;81;21070;-61
2022/08/27 08:53:32;;;;;;;13.20;4.35;;;;;;;;;;1746433;81;21054;-61
2022/08/27 08:56:01;;;;;;;12.95;3.90;;;;;;;;;;1744868;81;21098;-61
2022/08/27 08:58:37;;;;;;;11.43;3.60;;;;;;;;;;1747846;81;21062;-63
2022/08/27 09:01:07;;;;;;;13.35;4.20;;;;;;;;;;1747789;81;21625;-61
2022/08/27 09:03:39;;;;;;;11.00;3.77;;;;;;;;;;1726409;81;21042;-61
2022/08/27 09:06:09;;;;;;;10.08;3.77;;;;;;;;;;1747293;81;21042;-61
2022/08/27 09:08:40;;;;;;;13.03;4.30;;;;;;;;;;1743383;81;21094;-60
2022/08/27 09:11:16;;;;;;;13.03;4.00;;;;;;;;;;1746442;82;21554;-61
2022/08/27 09:13:48;;;;;;;10.58;4.05;;;;;;;;;;1749035;81;21027;-61
2022/08/27 09:16:15;;;;;;;8.23;3.20;;;;;;;;;;1721642;81;21044;-61
2022/08/27 09:18:43;;;;;;;8.53;3.40;;;;;;;;;;1725667;81;21121;-61
2022/08/27 09:21:26;;;;;;;15.65;3.72;;;;;;;;;;1725281;81;21559;-61
2022/08/27 09:23:57;;;;;;;10.83;3.77;;;;;;;;;;1730426;81;21559;-61
2022/08/27 09:26:26;;;;;;;12.23;3.60;;;;;;;;;;1718909;81;21080;-62
2022/08/27 09:29:18;;;;;;;12.55;3.83;;;;;;;;;;1692049;82;21035;-61
2022/08/27 09:31:57;;;;;;;9.13;3.50;;;;;;;;;;1726269;81;21047;-61
2022/08/27 09:34:26;;;;;;;12.20;3.47;;;;;;;;;;1703458;83;21061;-61
2022/08/27 09:37:00;;;;;;;14.43;3.67;;;;;;;;;;1693380;83;21005;-61
2022/08/27 09:39:53;;;;;;;14.05;3.62;;;;;;;;;;1675911;84;21069;-61
2022/08/27 09:42:26;;;;;;;14.50;3.98;;;;;;;;;;1678551;84;21013;-61
2022/08/27 09:44:54;;;;;;;12.75;3.58;;;;;;;;;;1712830;83;21002;-61
2022/08/27 09:47:21;;;;;;;15.98;3.75;;;;;;;;;;1732088;81;20968;-60
2022/08/27 09:49:48;;;;;;;12.95;3.70;;;;;;;;;;1718604;82;21016;-61
2022/08/27 09:52:40;;;;;;;9.78;3.42;;;;;;;;;;1682468;82;21562;-62
2022/08/27 09:55:08;;;;;;;14.85;3.52;;;;;;;;;;1625896;87;21005;-61
2022/08/27 09:57:40;;;;;;;14.10;3.77;;;;;;;;;;1702046;81;21048;-61
2022/08/27 10:00:10;;;;;;;12.10;3.35;;;;;;;;;;1737067;81;21004;-61
2022/08/27 10:02:48;;;;;;;8.95;3.58;;;;;;;;;;1739530;81;21156;-61
2022/08/27 10:05:18;;;;;;;11.57;3.35;;;;;;;;;;1720497;82;21062;-62
2022/08/27 10:07:55;;;;;;;11.38;3.85;;;;;;;;;;1707323;83;21011;-61
2022/08/27 10:10:43;;;;;;;13.08;3.83;;;;;;;;;;1696343;83;21089;-62
2022/08/27 10:13:25;;;;;;;12.07;4.12;;;;;;;;;;1661775;84;21565;-61
2022/08/27 10:16:01;;;;;;;13.48;3.72;;;;;;;;;;1650166;85;21498;-62
2022/08/27 10:18:37;;;;;;;9.58;3.85;;;;;;;;;;1722461;82;21083;-61
2022/08/27 10:21:16;;;;;;;11.83;3.70;;;;;;;;;;1697193;83;21097;-61
2022/08/27 10:23:59;;;;;;;9.45;3.90;;;;;;;;;;1721951;82;21056;-62
2022/08/27 10:26:33;;;;;;;10.20;3.80;;;;;;;;;;1712866;82;21008;-61
2022/08/27 10:29:12;;;;;;;13.88;3.98;;;;;;;;;;1711591;82;21040;-61
2022/08/27 10:31:51;;;;;;;10.78;3.92;;;;;;;;;;1721231;82;21038;-61
2022/08/27 10:34:27;;;;;;;12.82;4.30;;;;;;;;;;1715698;81;21036;-62
2022/08/27 10:37:21;;;;;;;15.50;3.75;;;;;;;;;;1734585;82;21003;-61
2022/08/27 10:40:15;;;;;;;9.20;3.62;;;;;;;;;;1726047;81;21044;-61
2022/08/27 10:42:51;;;;;;;10.38;3.60;;;;;;;;;;1738136;82;21028;-62
2022/08/27 10:45:34;;;;;;;14.53;3.47;;;;;;;;;;1729464;81;21058;-61
2022/08/27 10:48:16;;;;;;;15.38;4.05;;;;;;;;;;1734885;81;21114;-63
2022/08/27 10:51:02;;;;;;;20.30;3.58;;;;;;;;;;1738874;81;21020;-63
2022/08/27 10:53:32;;;;;;;15.83;4.10;;;;;;;;;;1640806;82;21107;-62
2022/08/27 10:56:11;;;;;;;12.15;3.90;;;;;;;;;;1723240;82;21007;-61
2022/08/27 10:58:58;;;;;;;12.15;3.58;;;;;;;;;;1708414;82;21376;-61
2022/08/27 11:01:46;;;;;;;14.75;3.65;;;;;;;;;;1722914;81;21134;-61
2022/08/27 11:04:21;;;;;;;13.62;3.40;;;;;;;;;;1738841;82;21070;-61
2022/08/27 11:07:00;;;;;;;10.03;3.55;;;;;;;;;;1736609;81;21016;-62
2022/08/27 11:09:41;;;;;;;12.20;3.42;;;;;;;;;;1732386;82;21012;-61
2022/08/27 11:12:10;;;;;;;15.72;3.40;;;;;;;;;;1717133;82;21555;-63
2022/08/27 11:14:45;;;;;;;15.93;3.58;;;;;;;;;;1748126;82;21060;-61
2022/08/27 11:17:26;;;;;;;10.30;3.22;;;;;;;;;;1722447;82;21022;-62
2022/08/27 11:19:56;;;;;;;10.65;3.12;;;;;;;;;;1741058;82;21052;-61
2022/08/27 11:22:36;;;;;;;13.18;3.12;;;;;;;;;;1724710;81;21895;-61
2022/08/27 11:25:23;;;;;;;14.40;3.47;;;;;;;;;;1720964;81;21222;-61
2022/08/27 11:27:52;;;;;;;13.58;3.67;;;;;;;;;;1731107;82;21535;-62
2022/08/27 11:30:24;;;;;;;15.18;3.35;;;;;;;;;;1730867;81;21001;-61
2022/08/27 11:33:10;;;;;;;;;;;;;;;;;;1745045;81;21003;-61
2022/08/27 11:36:00;;;;;;;10.38;3.33;;;;;;;;;;1752951;81;20095;-61
2022/08/27 11:39:05;;;;;;;12.68;3.62;;;;;;;;;;1740954;81;21075;-61
2022/08/27 11:41:54;;;;;;;9.25;3.10;;;;;;;;;;1718177;81;21058;-62
2022/08/27 11:44:23;;;;;;;14.10;3.55;;;;;;;;;;1631212;83;21062;-62
2022/08/27 11:46:56;;;;;;;14.28;3.22;;;;;;;;;;1704912;83;21094;-62
2022/08/27 11:49:28;;;;;;;14.47;3.27;;;;;;;;;;1724113;83;21007;-63
2022/08/27 11:51:58;;;;;;;14.60;3.37;;;;;;;;;;1705237;83;21090;-62
2022/08/27 11:54:31;;;;;;;16.62;3.58;;;;;;;;;;1706924;83;21088;-62
2022/08/27 11:56:58;;;;;;;12.78;3.77;;;;;;;;;;1699695;83;21632;-62
2022/08/27 11:59:28;;;;;;;13.55;3.45;;;;;;;;;;1702594;83;21531;-62
2022/08/27 12:01:58;;;;;;;18.52;3.55;;;;;;;;;;1709043;83;21067;-62
2022/08/27 12:04:28;;;;;;;15.98;3.50;;;;;;;;;;1710851;83;21055;-62
2022/08/27 12:07:04;;;;;;;13.65;3.70;;;;;;;;;;1705277;84;21525;-62
2022/08/27 12:09:53;;;;;;;22.00;3.95;;;;;;;;;;1672903;85;21067;-62
2022/08/27 12:12:36;;;;;;;14.75;3.92;;;;;;;;;;1717759;81;21491;-63
2022/08/27 12:15:13;;;;;;;17.92;3.47;;;;;;;;;;1740711;82;21003;-63
2022/08/27 12:17:54;;;;;;;21.62;4.12;;;;;;;;;;1740742;81;21047;-63
2022/08/27 12:20:24;;;;;;;20.15;3.70;;;;;;;;;;1737225;81;21100;-62
2022/08/27 12:26:02;;;;;;;14.50;4.22;;;;;;;;;;1737696;81;21142;-63
2022/08/27 12:28:29;;;;;;;17.17;3.90;;;;;;;;;;1731843;82;21586;-61
2022/08/27 12:30:57;;;;;;;22.13;4.22;;;;;;;;;;1737053;81;21090;-62
2022/08/27 12:33:41;;;;;;;16.17;3.83;;;;;;;;;;1724878;82;21158;-62
2022/08/27 12:36:11;;;;;;;14.07;3.77;;;;;;;;;;1715795;82;21019;-62
2022/08/27 12:38:46;;;;;;;19.57;3.67;;;;;;;;;;1716605;82;21141;-62
2022/08/27 12:41:25;;;;;;;17.00;3.65;;;;;;;;;;1705971;81;21078;-62
2022/08/27 12:44:04;;;;;;;21.15;3.92;;;;;;;;;;1724906;82;21371;-62
2022/08/27 12:46:37;;;;;;;15.85;3.65;;;;;;;;;;1724320;82;21095;-62
2022/08/27 12:49:04;;;;;;;16.95;4.10;;;;;;;;;;1731399;82;21469;-61
2022/08/27 12:51:34;;;;;;;20.45;4.40;;;;;;;;;;1733018;82;21030;-62
2022/08/27 12:54:39;;;;;;;21.68;4.37;;;;;;;;;;1724133;81;21531;-62
2022/08/27 12:57:10;;;;;;;27.40;4.30;;;;;;;;;;1734451;81;21086;-63
2022/08/27 12:59:43;;;;;;;14.00;3.55;;;;;;;;;;1724507;82;21044;-62
2022/08/27 13:02:41;;;;;;;17.00;3.67;;;;;;;;;;1734603;82;21027;-63
2022/08/27 13:05:10;;;;;;;16.85;3.80;;;;;;;;;;1727812;82;21055;-61
2022/08/27 13:07:42;;;;;;;19.32;4.10;;;;;;;;;;1712173;83;21035;-62
2022/08/27 13:10:28;;;;;;;25.62;4.40;;;;;;;;;;1729240;82;21000;-62
2022/08/27 13:13:07;;;;;;;23.85;4.33;;;;;;;;;;1717951;82;21062;-62
2022/08/27 13:15:34;;;;;;;20.50;3.98;;;;;;;;;;1715453;82;21444;-61
2022/08/27 13:18:06;;;;;;;27.32;4.33;;;;;;;;;;1729774;81;21112;-62
2022/08/27 13:20:36;;;;;;;24.43;4.50;;;;;;;;;;1744999;82;21048;-62
2022/08/27 13:23:03;;;;;;;28.50;6.70;;;;;;;;;;1740676;82;21070;-60
2022/08/27 13:25:33;;;;;;;21.23;5.17;;;;;;;;;;1722337;82;21059;-61
2022/08/27 13:28:10;;;;;;;18.17;4.28;;;;;;;;;;1712007;83;21071;-61
2022/08/27 13:30:40;;;;;;;19.67;4.10;;;;;;;;;;1714883;81;21539;-61
2022/08/27 13:33:10;;;;;;;22.13;4.40;;;;;;;;;;1721426;82;21531;-62
2022/08/27 13:35:41;;;;;;;23.45;4.65;;;;;;;;;;1712954;82;21091;-62
2022/08/27 13:38:07;;;;;;;20.57;4.50;;;;;;;;;;1714974;82;21042;-61
2022/08/27 13:40:37;;;;;;;18.37;4.58;;;;;;;;;;1693195;82;21044;-61
2022/08/27 13:43:10;;;;;;;29.35;4.80;;;;;;;;;;1747907;82;21071;-61
2022/08/27 13:45:38;;;;;;;21.17;4.55;;;;;;;;;;1753968;82;21527;-61
2022/08/27 13:48:09;;;;;;;30.57;5.28;;;;;;;;;;1727060;82;21063;-61
2022/08/27 13:50:36;;;;;;;28.40;4.83;;;;;;;;;;1714248;82;21094;-62
2022/08/27 13:55:55;;;;;;;26.45;5.47;;;;;;;;;;1742564;82;21118;-61
2022/08/27 13:58:28;;;;;;;23.70;5.37;;;;;;;;;;1720111;82;21055;-61
2022/08/27 14:00:57;;;;;;;28.15;5.33;;;;;;;;;;1713135;82;20996;-62
2022/08/27 14:03:27;;;;;;;23.10;5.03;;;;;;;;;;1738453;81;21087;-61
2022/08/27 14:05:55;;;;;;;40.17;5.42;;;;;;;;;;1712434;82;21044;-62
2022/08/27 14:08:26;;;;;;;26.27;5.25;;;;;;;;;;1729386;82;21187;-61
2022/08/27 14:11:04;;;;;;;22.90;4.92;;;;;;;;;;1753679;81;21063;-61
2022/08/27 14:13:41;;;;;;;21.50;5.00;;;;;;;;;;1728713;82;21102;-61
2022/08/27 14:16:30;;;;;;;21.37;5.05;;;;;;;;;;1717174;82;21567;-62
2022/08/27 14:19:24;;;;;;;21.25;4.65;;;;;;;;;;1712592;82;21040;-61
2022/08/27 14:21:52;;;;;;;20.57;5.30;;;;;;;;;;1734172;81;21141;-61
2022/08/27 14:24:19;;;;;;;30.23;5.20;;;;;;;;;;1738912;81;21008;-61
2022/08/27 14:26:52;;;;;;;46.50;5.83;;;;;;;;;;1733125;81;21094;-60
2022/08/27 14:29:20;;;;;;;32.20;4.97;;;;;;;;;;1714768;82;21032;-61
2022/08/27 14:31:47;;;;;;;29.60;4.92;;;;;;;;;;1717009;82;21079;-60
2022/08/27 14:34:15;;;;;;;25.85;5.08;;;;;;;;;;1712728;82;21504;-61
2022/08/27 14:36:43;;;;;;;32.40;5.50;;;;;;;;;;1714130;82;21039;-62
2022/08/27 14:39:10;;;;;;;37.78;5.83;;;;;;;;;;1752589;82;21472;-60
2022/08/27 14:41:37;;;;;;;34.85;5.12;;;;;;;;;;1741986;82;21078;-61
2022/08/27 14:44:05;;;;;;;25.97;5.00;;;;;;;;;;1712848;82;21050;-60
2022/08/27 14:46:37;;;;;;;33.88;5.60;;;;;;;;;;1722173;82;21458;-61
2022/08/27 14:49:10;;;;;;;19.75;4.37;;;;;;;;;;1712595;83;21039;-60
2022/08/27 14:51:39;;;;;;;24.57;5.28;;;;;;;;;;1716857;82;21068;-60
2022/08/27 14:54:06;;;;;;;28.10;5.12;;;;;;;;;;1713104;82;21476;-61
2022/08/27 14:56:33;;;;;;;37.00;5.53;;;;;;;;;;1716725;82;20996;-60
2022/08/27 14:59:00;;;;;;;31.77;5.20;;;;;;;;;;1739520;82;21090;-61
2022/08/27 15:01:26;;;;;;;36.40;5.35;;;;;;;;;;1728596;82;21054;-60
2022/08/27 15:03:54;;;;;;;31.60;5.55;;;;;;;;;;1728454;82;21535;-60
2022/08/27 15:06:22;;;;;;;29.12;5.10;;;;;;;;;;1738255;82;21519;-60